Time;durP1;ratioP1;P1;durP2;ratioP2;P2;SDS_P1;SDS_P2;PMS_P1;PMS_P2;Temp;Humidity;BMP_temperature;BMP_pressure;BME280_temperature;BME280_humidity;BME280_pressure;Samples;Min_cycle;Max_cycle;Signal;HPM_P1;HPM_P2
2023/06/27 00:00:22;;;;;;;13.52;3.92;;;;;;;;;;5099283;28;20280;-68
2023/06/27 00:03:08;;;;;;;8.45;4.03;;;;;;;;;;5107137;28;20054;-69
2023/06/27 00:05:37;;;;;;;12.75;4.70;;;;;;;;;;5095851;28;20046;-71
2023/06/27 00:08:06;;;;;;;9.10;4.25;;;;;;;;;;5107136;28;20055;-69
2023/06/27 00:10:33;;;;;;;11.05;3.95;;;;;;;;;;5084029;28;20058;-71
2023/06/27 00:12:59;;;;;;;9.68;3.83;;;;;;;;;;5092947;28;20052;-70
2023/06/27 00:15:29;;;;;;;13.05;4.32;;;;;;;;;;5099359;28;20051;-68
2023/06/27 00:17:56;;;;;;;12.70;4.03;;;;;;;;;;5093951;28;20042;-68
2023/06/27 00:20:22;;;;;;;9.27;4.15;;;;;;;;;;5100900;28;20057;-69
2023/06/27 00:22:49;;;;;;;9.20;4.10;;;;;;;;;;5092664;28;20475;-73
2023/06/27 00:25:15;;;;;;;10.52;4.32;;;;;;;;;;5085014;28;20040;-67
2023/06/27 00:27:41;;;;;;;6.90;3.65;;;;;;;;;;5103477;28;20074;-69
2023/06/27 00:30:08;;;;;;;7.53;4.03;;;;;;;;;;5095178;28;20361;-68
2023/06/27 00:32:34;;;;;;;11.27;4.63;;;;;;;;;;5102825;28;20044;-69
2023/06/27 00:35:00;;;;;;;12.43;4.00;;;;;;;;;;5096163;28;20039;-69
2023/06/27 00:37:26;;;;;;;10.40;4.05;;;;;;;;;;5103211;28;20071;-68
2023/06/27 00:39:52;;;;;;;8.00;3.95;;;;;;;;;;5096096;28;20518;-70
2023/06/27 00:42:18;;;;;;;14.20;4.10;;;;;;;;;;5096732;28;20483;-69
2023/06/27 00:44:46;;;;;;;10.23;4.57;;;;;;;;;;5102989;28;20107;-69
2023/06/27 00:47:12;;;;;;;10.50;4.20;;;;;;;;;;5089595;28;20041;-68
2023/06/27 00:49:38;;;;;;;9.05;4.50;;;;;;;;;;5105147;28;20047;-69
2023/06/27 00:52:05;;;;;;;9.75;4.20;;;;;;;;;;5079981;28;20056;-68
2023/06/27 00:54:31;;;;;;;11.82;4.70;;;;;;;;;;5101754;27;20044;-67
2023/06/27 00:56:58;;;;;;;11.32;4.15;;;;;;;;;;5093304;28;20066;-68
2023/06/27 00:59:25;;;;;;;10.02;4.47;;;;;;;;;;5100035;28;20379;-69
2023/06/27 01:01:52;;;;;;;9.68;4.93;;;;;;;;;;5095280;28;20120;-68
2023/06/27 01:04:18;;;;;;;13.73;4.80;;;;;;;;;;5105534;28;20044;-66
2023/06/27 01:07:13;;;;;;;11.70;5.03;;;;;;;;;;5106111;28;20044;-67
2023/06/27 01:09:53;;;;;;;10.20;4.72;;;;;;;;;;5104220;28;20050;-67
2023/06/27 01:12:26;;;;;;;11.23;4.40;;;;;;;;;;5100036;27;20066;-66
2023/06/27 01:14:56;;;;;;;8.50;5.05;;;;;;;;;;5100274;27;20047;-67
2023/06/27 01:17:24;;;;;;;14.60;4.78;;;;;;;;;;5105135;27;20130;-68
2023/06/27 01:19:52;;;;;;;13.90;5.28;;;;;;;;;;5100538;27;20096;-66
2023/06/27 01:22:29;;;;;;;12.40;4.97;;;;;;;;;;5109056;27;20040;-66
2023/06/27 01:24:56;;;;;;;10.23;5.07;;;;;;;;;;5098681;27;20047;-69
2023/06/27 01:27:23;;;;;;;12.55;5.55;;;;;;;;;;5105231;28;20142;-65
2023/06/27 01:29:48;;;;;;;13.07;5.75;;;;;;;;;;5105999;28;20160;-69
2023/06/27 01:32:23;;;;;;;9.63;5.10;;;;;;;;;;5110865;27;20046;-68
2023/06/27 01:34:57;;;;;;;;;;;;;;;;;;5110867;27;20044;-66
2023/06/27 01:37:31;;;;;;;12.60;6.00;;;;;;;;;;5110796;28;20006;-68
2023/06/27 01:40:08;;;;;;;10.93;5.75;;;;;;;;;;5089794;28;20239;-69
2023/06/27 01:42:37;;;;;;;13.65;5.82;;;;;;;;;;5100469;28;20052;-69
2023/06/27 01:45:04;;;;;;;12.23;5.72;;;;;;;;;;5096436;28;20054;-69
2023/06/27 01:47:35;;;;;;;11.18;5.93;;;;;;;;;;5100505;28;20372;-69
2023/06/27 01:50:02;;;;;;;12.30;5.88;;;;;;;;;;5094412;27;20081;-68
2023/06/27 01:52:28;;;;;;;16.23;6.55;;;;;;;;;;5109548;27;20048;-70
2023/06/27 01:54:54;;;;;;;13.90;6.43;;;;;;;;;;5106080;27;20039;-66
2023/06/27 01:57:20;;;;;;;10.63;6.30;;;;;;;;;;5108060;27;20052;-67
2023/06/27 01:59:47;;;;;;;11.73;5.72;;;;;;;;;;5104790;27;20432;-67
2023/06/27 02:02:13;;;;;;;10.38;6.05;;;;;;;;;;5106269;27;20487;-68
2023/06/27 02:04:39;;;;;;;12.20;6.00;;;;;;;;;;5103248;27;20062;-67
2023/06/27 02:07:05;;;;;;;10.75;6.00;;;;;;;;;;5096894;27;20043;-66
2023/06/27 02:09:31;;;;;;;12.95;6.60;;;;;;;;;;5101240;28;20043;-68
2023/06/27 02:11:57;;;;;;;15.13;6.70;;;;;;;;;;5075760;28;20044;-66
2023/06/27 02:14:23;;;;;;;15.82;6.90;;;;;;;;;;5084810;28;20062;-67
2023/06/27 02:16:49;;;;;;;13.40;6.45;;;;;;;;;;5069497;28;20052;-66
2023/06/27 02:19:15;;;;;;;14.80;6.55;;;;;;;;;;5085913;28;20060;-67
2023/06/27 02:21:44;;;;;;;16.40;6.57;;;;;;;;;;5083621;28;20504;-68
2023/06/27 02:24:10;;;;;;;12.13;6.43;;;;;;;;;;5084727;28;20047;-68
2023/06/27 02:26:36;;;;;;;11.13;6.07;;;;;;;;;;5080688;28;20048;-67
2023/06/27 02:29:02;;;;;;;11.77;5.90;;;;;;;;;;5082697;28;20051;-69
2023/06/27 02:31:29;;;;;;;12.65;6.32;;;;;;;;;;5072334;28;20053;-68
2023/06/27 02:33:55;;;;;;;12.43;6.43;;;;;;;;;;5080033;28;20464;-69
2023/06/27 02:36:22;;;;;;;17.38;6.57;;;;;;;;;;5078000;28;20377;-68
2023/06/27 02:38:49;;;;;;;13.00;6.30;;;;;;;;;;5073921;28;20032;-69
2023/06/27 02:41:16;;;;;;;10.82;6.05;;;;;;;;;;5084119;28;20557;-69
2023/06/27 02:43:41;;;;;;;16.48;6.80;;;;;;;;;;5071615;28;20052;-68
2023/06/27 02:46:08;;;;;;;12.93;6.22;;;;;;;;;;5073400;28;20056;-69
2023/06/27 02:48:34;;;;;;;15.25;7.10;;;;;;;;;;5083916;28;20055;-69
2023/06/27 02:51:00;;;;;;;15.50;6.63;;;;;;;;;;5082406;28;20052;-67
2023/06/27 02:53:25;;;;;;;12.95;6.38;;;;;;;;;;5053923;28;20680;-69
2023/06/27 02:56:34;;;;;;;13.40;6.70;;;;;;;;;;5081355;28;20060;-69
2023/06/27 03:00:15;;;;;;;11.57;6.97;;;;;;;;;;5080462;28;20085;-67
2023/06/27 03:03:55;;;;;;;16.08;6.90;;;;;;;;;;5083400;28;20512;-70
2023/06/27 03:07:35;;;;;;;14.70;6.75;;;;;;;;;;5073914;28;20060;-68
2023/06/27 03:10:36;;;;;;;15.20;7.47;;;;;;;;;;5081921;28;20507;-70
2023/06/27 03:13:02;;;;;;;18.95;7.97;;;;;;;;;;5072724;28;20056;-70
2023/06/27 03:15:28;;;;;;;16.65;7.85;;;;;;;;;;5081325;28;20052;-67
2023/06/27 03:17:54;;;;;;;13.55;6.85;;;;;;;;;;5087011;28;20040;-68
2023/06/27 03:20:21;;;;;;;16.23;7.70;;;;;;;;;;5082803;28;20052;-68
2023/06/27 03:22:49;;;;;;;18.65;7.47;;;;;;;;;;5079723;28;20557;-67
2023/06/27 03:25:15;;;;;;;19.27;7.60;;;;;;;;;;5088281;28;20105;-67
2023/06/27 03:27:41;;;;;;;13.00;7.43;;;;;;;;;;5084853;28;20155;-67
2023/06/27 03:30:07;;;;;;;19.42;7.55;;;;;;;;;;5078909;28;20038;-68
2023/06/27 03:32:34;;;;;;;17.73;7.95;;;;;;;;;;5084878;28;20046;-68
2023/06/27 03:35:00;;;;;;;15.48;8.05;;;;;;;;;;5082307;28;20420;-67
2023/06/27 03:37:27;;;;;;;12.07;7.30;;;;;;;;;;5084748;28;20059;-68
2023/06/27 03:39:52;;;;;;;14.65;7.35;;;;;;;;;;5081799;28;20048;-67
2023/06/27 03:42:19;;;;;;;18.85;7.80;;;;;;;;;;5099575;28;20484;-67
2023/06/27 03:44:45;;;;;;;16.60;7.57;;;;;;;;;;5076154;28;20131;-69
2023/06/27 03:47:11;;;;;;;15.98;7.25;;;;;;;;;;5084184;28;20131;-68
2023/06/27 03:49:37;;;;;;;12.98;7.45;;;;;;;;;;5088396;28;20131;-67
2023/06/27 03:52:05;;;;;;;18.80;7.57;;;;;;;;;;5087505;28;20050;-68
2023/06/27 03:54:31;;;;;;;12.98;7.65;;;;;;;;;;5080577;28;20066;-68
2023/06/27 03:56:58;;;;;;;17.70;7.43;;;;;;;;;;5087231;28;20093;-67
2023/06/27 03:59:23;;;;;;;16.10;7.90;;;;;;;;;;5083177;28;21849;-68
2023/06/27 04:01:50;;;;;;;16.52;7.45;;;;;;;;;;5097001;28;20503;-69
2023/06/27 04:04:15;;;;;;;12.15;7.05;;;;;;;;;;5080216;28;20487;-68
2023/06/27 04:06:42;;;;;;;15.55;7.38;;;;;;;;;;5085375;28;20295;-69
2023/06/27 04:09:07;;;;;;;16.08;7.55;;;;;;;;;;5083271;28;20441;-68
2023/06/27 04:11:34;;;;;;;14.93;7.45;;;;;;;;;;5086143;28;20259;-69
2023/06/27 04:13:59;;;;;;;15.20;7.00;;;;;;;;;;5083602;28;20490;-69
2023/06/27 04:16:27;;;;;;;12.85;6.88;;;;;;;;;;5077571;28;20044;-70
2023/06/27 04:18:53;;;;;;;17.63;7.32;;;;;;;;;;5077044;28;20052;-69
2023/06/27 04:21:20;;;;;;;14.00;7.10;;;;;;;;;;5094501;28;20044;-68
2023/06/27 04:23:46;;;;;;;12.82;7.18;;;;;;;;;;5092132;28;20044;-67
2023/06/27 04:26:17;;;;;;;15.70;7.38;;;;;;;;;;5080563;28;20063;-67
2023/06/27 04:28:43;;;;;;;12.13;7.40;;;;;;;;;;5087570;28;20059;-69
2023/06/27 04:31:10;;;;;;;16.20;7.40;;;;;;;;;;5069731;28;20067;-69
2023/06/27 04:33:42;;;;;;;18.77;7.80;;;;;;;;;;5093349;28;20305;-67
2023/06/27 04:36:09;;;;;;;17.63;7.35;;;;;;;;;;5070162;28;20078;-70
2023/06/27 04:38:37;;;;;;;13.60;7.03;;;;;;;;;;5087512;28;20075;-70
2023/06/27 04:41:05;;;;;;;21.70;7.03;;;;;;;;;;5080222;28;20491;-70
2023/06/27 04:43:32;;;;;;;14.45;7.05;;;;;;;;;;5086050;28;20044;-69
2023/06/27 04:46:01;;;;;;;15.15;6.97;;;;;;;;;;5084601;28;20071;-69
2023/06/27 04:48:28;;;;;;;14.63;7.35;;;;;;;;;;5063950;28;20054;-68
2023/06/27 04:50:55;;;;;;;11.10;6.80;;;;;;;;;;5068390;28;20055;-70
2023/06/27 04:53:21;;;;;;;14.77;7.10;;;;;;;;;;5088002;28;20040;-68
2023/06/27 04:55:51;;;;;;;18.05;8.45;;;;;;;;;;5086823;28;20048;-70
2023/06/27 04:58:21;;;;;;;15.68;8.50;;;;;;;;;;5070513;28;20065;-68
2023/06/27 05:00:48;;;;;;;15.20;8.18;;;;;;;;;;5083752;28;20060;-69
2023/06/27 05:03:15;;;;;;;16.05;8.10;;;;;;;;;;5084489;28;20143;-69
2023/06/27 05:05:44;;;;;;;18.10;7.95;;;;;;;;;;5079014;28;20400;-70
2023/06/27 05:08:10;;;;;;;12.13;6.72;;;;;;;;;;5070397;28;20106;-68
2023/06/27 05:10:36;;;;;;;17.75;7.28;;;;;;;;;;5083017;28;20100;-69
2023/06/27 05:13:03;;;;;;;15.98;7.35;;;;;;;;;;5092180;28;20418;-68
2023/06/27 05:16:06;;;;;;;13.80;7.32;;;;;;;;;;5091613;28;20058;-69
2023/06/27 05:18:33;;;;;;;12.38;7.05;;;;;;;;;;5102789;28;20051;-70
2023/06/27 05:21:39;;;;;;;15.20;7.18;;;;;;;;;;5085472;28;20050;-68
2023/06/27 05:25:19;;;;;;;15.27;7.63;;;;;;;;;;5098806;28;20456;-68
2023/06/27 05:29:01;;;;;;;18.20;7.18;;;;;;;;;;5101895;28;20499;-69
2023/06/27 05:32:41;;;;;;;14.20;7.72;;;;;;;;;;5100962;28;20040;-68
2023/06/27 05:36:21;;;;;;;17.73;8.27;;;;;;;;;;5103452;28;20491;-68
2023/06/27 05:40:02;;;;;;;18.10;8.27;;;;;;;;;;5102532;28;20048;-68
2023/06/27 05:43:42;;;;;;;19.98;7.97;;;;;;;;;;5091489;28;20032;-69
2023/06/27 05:47:22;;;;;;;17.73;8.05;;;;;;;;;;5073523;28;20048;-66
2023/06/27 05:51:03;;;;;;;18.27;7.63;;;;;;;;;;5085857;28;20457;-68
2023/06/27 05:54:43;;;;;;;15.13;6.90;;;;;;;;;;5083781;28;20043;-69
2023/06/27 05:58:23;;;;;;;16.75;7.15;;;;;;;;;;5099542;28;20086;-67
2023/06/27 06:02:04;;;;;;;17.25;6.70;;;;;;;;;;5099650;28;20055;-69
2023/06/27 06:05:44;;;;;;;10.73;6.28;;;;;;;;;;5100937;28;20071;-72
2023/06/27 06:09:24;;;;;;;16.83;6.45;;;;;;;;;;5102828;28;20074;-68
2023/06/27 06:13:05;;;;;;;14.98;6.35;;;;;;;;;;5103660;27;20139;-69
2023/06/27 06:16:45;;;;;;;21.90;6.40;;;;;;;;;;5107429;27;20625;-72
2023/06/27 06:20:26;;;;;;;15.68;6.00;;;;;;;;;;5092079;27;20051;-73
2023/06/27 06:24:08;;;;;;;14.48;6.53;;;;;;;;;;5101779;27;20047;-68
2023/06/27 06:27:46;;;;;;;15.73;6.25;;;;;;;;;;5101429;27;20047;-67
2023/06/27 06:31:27;;;;;;;16.38;6.32;;;;;;;;;;5107303;27;20055;-69
2023/06/27 06:35:07;;;;;;;12.48;6.00;;;;;;;;;;5103079;27;20582;-70
2023/06/27 06:38:48;;;;;;;12.07;5.93;;;;;;;;;;5106106;27;20130;-71
2023/06/27 06:42:29;;;;;;;11.18;5.55;;;;;;;;;;5092524;28;20043;-71
2023/06/27 06:46:09;;;;;;;16.00;5.55;;;;;;;;;;5106882;27;20047;-70
2023/06/27 06:49:50;;;;;;;13.60;5.75;;;;;;;;;;5095313;27;20160;-71
2023/06/27 06:53:30;;;;;;;14.00;5.40;;;;;;;;;;5099884;28;20175;-74
2023/06/27 06:57:10;;;;;;;13.13;5.30;;;;;;;;;;5103004;27;20037;-68
2023/06/27 07:00:51;;;;;;;12.48;5.72;;;;;;;;;;5102471;27;20123;-69
2023/06/27 07:04:31;;;;;;;10.32;5.15;;;;;;;;;;5103103;27;20379;-70
2023/06/27 07:08:13;;;;;;;15.30;6.10;;;;;;;;;;5097103;27;20044;-69
2023/06/27 07:11:54;;;;;;;16.10;5.00;;;;;;;;;;5103317;27;20133;-70
2023/06/27 07:14:49;;;;;;;13.80;5.13;;;;;;;;;;5106366;27;20067;-70
2023/06/27 07:17:17;;;;;;;17.45;5.40;;;;;;;;;;5096476;28;20511;-72
2023/06/27 07:19:44;;;;;;;11.55;4.75;;;;;;;;;;5084202;28;20115;-71
2023/06/27 07:22:10;;;;;;;13.30;4.97;;;;;;;;;;5106220;27;20071;-72
2023/06/27 07:24:36;;;;;;;8.98;4.78;;;;;;;;;;5101966;28;20130;-73
2023/06/27 07:27:03;;;;;;;12.80;5.07;;;;;;;;;;5110350;27;20579;-69
2023/06/27 07:29:31;;;;;;;9.95;4.40;;;;;;;;;;5106221;27;20047;-70
2023/06/27 07:31:57;;;;;;;10.27;4.45;;;;;;;;;;5104667;27;20055;-68
2023/06/27 07:34:23;;;;;;;11.88;4.22;;;;;;;;;;5092344;28;20608;-69
2023/06/27 07:36:49;;;;;;;11.57;4.80;;;;;;;;;;5109074;27;20114;-72
2023/06/27 07:39:18;;;;;;;6.82;4.22;;;;;;;;;;5106322;27;20055;-72
2023/06/27 07:41:44;;;;;;;10.88;4.70;;;;;;;;;;5080951;28;20090;-70
2023/06/27 07:44:11;;;;;;;13.85;5.18;;;;;;;;;;5105867;28;20072;-69
2023/06/27 07:46:37;;;;;;;15.70;4.95;;;;;;;;;;5092961;28;20175;-71
2023/06/27 07:49:03;;;;;;;11.60;4.93;;;;;;;;;;5102732;27;20097;-70
2023/06/27 07:51:31;;;;;;;13.95;4.90;;;;;;;;;;5104436;27;20051;-72
2023/06/27 07:54:00;;;;;;;9.68;4.63;;;;;;;;;;5118756;27;20218;-74
2023/06/27 07:56:26;;;;;;;10.82;4.85;;;;;;;;;;5102822;27;20047;-72
2023/06/27 07:58:52;;;;;;;12.75;4.90;;;;;;;;;;5101166;28;20051;-70
2023/06/27 08:01:20;;;;;;;11.05;4.82;;;;;;;;;;5087956;28;20154;-70
2023/06/27 08:03:47;;;;;;;12.32;4.75;;;;;;;;;;5096773;27;20051;-68
2023/06/27 08:06:14;;;;;;;10.00;4.53;;;;;;;;;;5105093;28;20503;-68
2023/06/27 08:08:40;;;;;;;8.27;4.43;;;;;;;;;;5105844;27;20048;-68
2023/06/27 08:11:06;;;;;;;8.95;4.70;;;;;;;;;;5104662;28;20522;-70
2023/06/27 08:13:34;;;;;;;9.70;4.70;;;;;;;;;;5103123;27;20050;-70
2023/06/27 08:16:00;;;;;;;9.98;4.53;;;;;;;;;;5110432;28;20131;-71
2023/06/27 08:18:26;;;;;;;9.35;4.80;;;;;;;;;;5083746;28;20077;-75
2023/06/27 08:21:31;;;;;;;10.93;4.82;;;;;;;;;;5089143;28;20134;-70
2023/06/27 08:25:12;;;;;;;11.85;4.35;;;;;;;;;;5094819;28;20098;-75
2023/06/27 08:28:52;;;;;;;14.15;4.82;;;;;;;;;;5094610;28;20100;-76
2023/06/27 08:32:33;;;;;;;11.30;6.25;;;;;;;;;;5088715;28;20402;-74
2023/06/27 08:36:13;;;;;;;13.57;5.95;;;;;;;;;;5105763;28;20050;-76
2023/06/27 08:39:53;;;;;;;19.55;8.10;;;;;;;;;;5104861;28;20043;-73
2023/06/27 08:43:33;;;;;;;25.00;8.07;;;;;;;;;;5106718;28;20071;-70
2023/06/27 08:47:15;;;;;;;24.30;8.35;;;;;;;;;;5105524;28;20069;-73
2023/06/27 08:50:56;;;;;;;17.55;7.97;;;;;;;;;;5095732;28;20116;-71
2023/06/27 08:54:36;;;;;;;25.98;7.05;;;;;;;;;;5101052;28;20039;-71
2023/06/27 08:58:16;;;;;;;13.10;5.50;;;;;;;;;;5106423;28;20117;-69
2023/06/27 09:01:56;;;;;;;13.55;5.53;;;;;;;;;;5101138;28;20414;-69
2023/06/27 09:05:37;;;;;;;14.32;6.10;;;;;;;;;;5112111;27;20051;-71
2023/06/27 09:09:19;;;;;;;9.13;4.90;;;;;;;;;;5106706;27;20256;-71
2023/06/27 09:12:59;;;;;;;9.60;4.95;;;;;;;;;;5104301;27;20039;-69
2023/06/27 09:16:39;;;;;;;9.93;5.50;;;;;;;;;;5083923;28;21114;-72
2023/06/27 09:20:20;;;;;;;14.35;5.55;;;;;;;;;;5078469;28;20047;-71
2023/06/27 09:24:00;;;;;;;18.75;6.03;;;;;;;;;;5071406;28;20415;-72
2023/06/27 09:27:46;;;;;;;6.57;4.90;;;;;;;;;;5080902;28;20098;-70
2023/06/27 09:31:15;;;;;;;;;;;;;;;;;;5087525;28;20067;-72
2023/06/27 09:34:56;;;;;;;18.75;4.93;;;;;;;;;;5091418;28;19919;-72
2023/06/27 09:38:47;;;;;;;9.35;4.80;;;;;;;;;;5091096;28;20055;-74
2023/06/27 09:42:27;;;;;;;8.95;4.45;;;;;;;;;;5087902;28;20052;-73
2023/06/27 09:46:07;;;;;;;7.35;4.30;;;;;;;;;;5075121;28;20043;-72
2023/06/27 09:49:48;;;;;;;9.80;4.30;;;;;;;;;;5094829;28;20048;-72
2023/06/27 09:53:28;;;;;;;8.75;3.97;;;;;;;;;;5077324;28;20106;-72
2023/06/27 09:57:08;;;;;;;6.95;4.07;;;;;;;;;;5075998;28;20046;-73
2023/06/27 10:00:48;;;;;;;7.47;4.20;;;;;;;;;;5082985;28;20450;-72
2023/06/27 10:03:50;;;;;;;11.07;4.70;;;;;;;;;;5080034;28;20052;-72
2023/06/27 10:06:16;;;;;;;16.45;5.07;;;;;;;;;;5085964;28;20044;-74
2023/06/27 10:08:42;;;;;;;11.38;4.10;;;;;;;;;;5081346;28;20087;-73
2023/06/27 10:11:08;;;;;;;8.43;3.45;;;;;;;;;;5086732;28;20445;-73
2023/06/27 10:13:35;;;;;;;9.20;3.63;;;;;;;;;;5084469;28;20142;-71
2023/06/27 10:16:06;;;;;;;12.77;3.63;;;;;;;;;;5102155;28;20052;-70
2023/06/27 10:18:32;;;;;;;14.18;4.03;;;;;;;;;;5099955;28;20055;-74
2023/06/27 10:20:58;;;;;;;9.68;3.70;;;;;;;;;;5083027;28;20058;-74
2023/06/27 10:23:26;;;;;;;11.10;3.88;;;;;;;;;;5087710;28;20035;-73
2023/06/27 10:25:53;;;;;;;7.35;3.17;;;;;;;;;;5099834;27;20201;-73
2023/06/27 10:28:19;;;;;;;5.97;3.38;;;;;;;;;;5104794;28;20058;-72
2023/06/27 10:30:46;;;;;;;9.60;4.10;;;;;;;;;;5094447;28;20491;-73
2023/06/27 10:33:32;;;;;;;10.50;3.67;;;;;;;;;;5090001;28;20119;-74
2023/06/27 10:36:02;;;;;;;8.40;3.70;;;;;;;;;;5100377;28;20043;-74
2023/06/27 10:38:45;;;;;;;7.30;3.30;;;;;;;;;;5095867;28;20170;-73
2023/06/27 10:41:26;;;;;;;8.10;3.60;;;;;;;;;;5101237;28;20074;-73
2023/06/27 10:43:54;;;;;;;13.40;3.78;;;;;;;;;;5106840;28;20138;-73
2023/06/27 10:46:27;;;;;;;10.50;3.58;;;;;;;;;;5095328;28;20646;-72
2023/06/27 10:49:04;;;;;;;8.98;3.70;;;;;;;;;;5093972;28;20058;-72
2023/06/27 10:51:36;;;;;;;13.23;4.35;;;;;;;;;;5087036;28;20055;-75
2023/06/27 10:54:08;;;;;;;15.88;4.35;;;;;;;;;;5090552;28;20370;-74
2023/06/27 10:56:38;;;;;;;9.30;3.63;;;;;;;;;;5097076;28;20518;-72
2023/06/27 10:59:09;;;;;;;8.27;3.28;;;;;;;;;;5106800;28;20036;-75
2023/06/27 11:01:41;;;;;;;8.43;3.25;;;;;;;;;;5105706;28;20048;-74
2023/06/27 11:04:27;;;;;;;9.50;3.58;;;;;;;;;;5105270;28;20051;-74
2023/06/27 11:07:03;;;;;;;6.60;3.10;;;;;;;;;;5097800;28;20052;-74
2023/06/27 11:09:29;;;;;;;6.55;3.05;;;;;;;;;;5099976;28;20087;-73
2023/06/27 11:12:08;;;;;;;5.35;3.35;;;;;;;;;;5109647;28;20431;-73
2023/06/27 11:14:44;;;;;;;8.25;3.38;;;;;;;;;;5078393;28;20044;-75
2023/06/27 11:17:12;;;;;;;6.35;3.50;;;;;;;;;;5080045;28;20241;-74
2023/06/27 11:19:42;;;;;;;6.70;3.50;;;;;;;;;;5087280;28;20509;-74
2023/06/27 11:22:09;;;;;;;12.43;3.45;;;;;;;;;;5074989;28;20057;-73
2023/06/27 11:24:35;;;;;;;7.32;3.67;;;;;;;;;;5064965;28;20080;-72
2023/06/27 11:27:08;;;;;;;7.65;3.10;;;;;;;;;;5062133;28;20087;-73
2023/06/27 11:29:34;;;;;;;11.18;3.42;;;;;;;;;;5081108;28;20055;-73
2023/06/27 11:32:00;;;;;;;6.45;3.38;;;;;;;;;;5061907;28;20059;-74
2023/06/27 11:34:27;;;;;;;14.52;3.28;;;;;;;;;;5078254;28;20056;-72
2023/06/27 11:36:55;;;;;;;9.02;3.10;;;;;;;;;;5088705;28;20056;-74
2023/06/27 11:39:21;;;;;;;7.82;3.47;;;;;;;;;;5082038;28;20059;-72
2023/06/27 11:41:48;;;;;;;10.20;3.30;;;;;;;;;;5087135;28;20052;-74
2023/06/27 11:44:16;;;;;;;8.02;3.20;;;;;;;;;;5067395;28;20082;-75
2023/06/27 11:46:54;;;;;;;7.50;3.30;;;;;;;;;;5078812;28;20070;-72
2023/06/27 11:49:24;;;;;;;10.32;3.67;;;;;;;;;;5086094;28;20064;-74
2023/06/27 11:51:51;;;;;;;10.38;3.40;;;;;;;;;;5089176;28;20103;-74
2023/06/27 11:54:17;;;;;;;8.00;3.15;;;;;;;;;;5083622;28;20040;-75
2023/06/27 11:56:45;;;;;;;8.80;3.40;;;;;;;;;;5064784;28;20140;-75
2023/06/27 11:59:11;;;;;;;6.85;2.90;;;;;;;;;;5076492;28;20052;-74
2023/06/27 12:01:40;;;;;;;8.48;3.30;;;;;;;;;;5074829;28;20098;-71
2023/06/27 12:04:16;;;;;;;7.97;3.42;;;;;;;;;;5077169;28;20044;-73
2023/06/27 12:06:44;;;;;;;8.00;3.58;;;;;;;;;;5092427;28;20048;-72
2023/06/27 12:09:27;;;;;;;7.75;3.03;;;;;;;;;;5095094;28;20483;-73
2023/06/27 12:11:58;;;;;;;10.38;3.22;;;;;;;;;;5053139;28;20056;-73
2023/06/27 12:14:28;;;;;;;7.43;3.40;;;;;;;;;;5064282;28;20056;-74
2023/06/27 12:16:55;;;;;;;9.70;3.55;;;;;;;;;;5075354;28;20052;-74
2023/06/27 12:19:21;;;;;;;12.88;3.28;;;;;;;;;;5084083;28;20129;-75
2023/06/27 12:21:49;;;;;;;8.93;3.38;;;;;;;;;;5086105;28;20048;-74
2023/06/27 12:24:20;;;;;;;7.35;3.00;;;;;;;;;;5079253;28;20063;-71
2023/06/27 12:26:48;;;;;;;7.78;3.22;;;;;;;;;;5085243;28;20119;-77
2023/06/27 12:29:15;;;;;;;6.72;3.10;;;;;;;;;;5086885;28;20094;-71
2023/06/27 12:31:41;;;;;;;7.80;3.50;;;;;;;;;;5064629;28;20054;-71
2023/06/27 12:34:11;;;;;;;9.88;3.50;;;;;;;;;;5062934;28;20066;-71
2023/06/27 12:36:38;;;;;;;7.20;3.33;;;;;;;;;;5066772;28;20044;-67
2023/06/27 12:39:05;;;;;;;6.60;3.33;;;;;;;;;;5091016;28;20140;-74
2023/06/27 12:42:11;;;;;;;8.20;3.50;;;;;;;;;;5087933;28;20052;-73
2023/06/27 12:45:51;;;;;;;9.45;3.40;;;;;;;;;;5082305;28;20461;-74
2023/06/27 12:49:31;;;;;;;6.47;3.15;;;;;;;;;;5086898;28;20058;-72
2023/06/27 12:53:12;;;;;;;9.90;3.67;;;;;;;;;;5085411;28;20132;-71
2023/06/27 12:56:52;;;;;;;6.07;3.10;;;;;;;;;;5077811;28;20131;-72
2023/06/27 13:00:37;;;;;;;9.73;3.42;;;;;;;;;;5076580;28;20044;-73
2023/06/27 13:04:13;;;;;;;9.00;3.83;;;;;;;;;;5067226;28;20094;-74
2023/06/27 13:07:53;;;;;;;6.45;3.42;;;;;;;;;;5074835;28;20362;-75
2023/06/27 13:11:34;;;;;;;5.97;3.40;;;;;;;;;;5074682;28;20055;-73
2023/06/27 13:15:14;;;;;;;11.65;3.72;;;;;;;;;;5071187;28;20048;-73
2023/06/27 13:18:54;;;;;;;7.25;3.30;;;;;;;;;;5079228;28;20230;-73
2023/06/27 13:22:35;;;;;;;8.10;3.45;;;;;;;;;;5078237;28;20264;-74
2023/06/27 13:26:15;;;;;;;11.73;3.80;;;;;;;;;;5078787;28;20054;-74
2023/06/27 13:29:55;;;;;;;11.57;3.53;;;;;;;;;;5074882;28;20055;-75
2023/06/27 13:33:36;;;;;;;8.27;3.60;;;;;;;;;;5074675;28;20075;-75
2023/06/27 13:37:16;;;;;;;10.27;3.63;;;;;;;;;;5074740;28;20128;-75
2023/06/27 13:40:56;;;;;;;8.93;3.35;;;;;;;;;;5074985;28;20520;-74
2023/06/27 13:44:37;;;;;;;6.50;3.42;;;;;;;;;;5075746;28;20332;-74
2023/06/27 13:48:17;;;;;;;7.38;3.67;;;;;;;;;;5078505;28;20479;-77
2023/06/27 13:52:01;;;;;;;9.02;3.70;;;;;;;;;;5073722;28;20198;-76
2023/06/27 13:55:40;;;;;;;7.97;3.50;;;;;;;;;;5074684;28;21007;-75
2023/06/27 13:59:20;;;;;;;10.48;3.42;;;;;;;;;;5078222;28;20059;-75
2023/06/27 14:03:00;;;;;;;11.85;3.80;;;;;;;;;;5080159;28;20047;-75
2023/06/27 14:06:41;;;;;;;10.38;3.28;;;;;;;;;;5082294;28;20472;-77
2023/06/27 14:10:22;;;;;;;10.30;3.40;;;;;;;;;;5073622;28;20059;-66
2023/06/27 14:14:04;;;;;;;8.68;3.33;;;;;;;;;;5079427;28;20138;-72
2023/06/27 14:17:43;;;;;;;7.95;3.30;;;;;;;;;;5095144;27;20051;-65
2023/06/27 14:21:24;;;;;;;10.85;3.17;;;;;;;;;;5090574;28;20051;-67
2023/06/27 14:25:04;;;;;;;10.50;3.60;;;;;;;;;;5093493;28;20126;-69
2023/06/27 14:28:46;;;;;;;10.98;3.78;;;;;;;;;;5091375;28;20380;-67
2023/06/27 14:32:28;;;;;;;6.72;3.13;;;;;;;;;;5107767;27;20047;-67
2023/06/27 14:36:12;;;;;;;9.77;3.60;;;;;;;;;;5100729;27;20036;-67
2023/06/27 14:39:53;;;;;;;9.88;3.88;;;;;;;;;;5093591;28;20047;-65
2023/06/27 14:43:33;;;;;;;10.20;4.13;;;;;;;;;;5094206;28;20047;-67
2023/06/27 14:47:14;;;;;;;9.75;4.10;;;;;;;;;;5106353;27;20101;-67
2023/06/27 14:50:55;;;;;;;8.52;4.00;;;;;;;;;;5102748;27;20126;-69
2023/06/27 14:54:36;;;;;;;10.05;3.67;;;;;;;;;;5084197;28;20131;-66
2023/06/27 14:58:16;;;;;;;6.47;3.35;;;;;;;;;;5104703;27;20046;-68
2023/06/27 15:01:56;;;;;;;8.90;3.75;;;;;;;;;;5098996;27;20051;-67
2023/06/27 15:05:37;;;;;;;6.10;2.95;;;;;;;;;;5091686;28;20039;-66
2023/06/27 15:09:17;;;;;;;8.80;3.72;;;;;;;;;;5104620;28;20507;-69
2023/06/27 15:12:57;;;;;;;5.95;3.33;;;;;;;;;;5103452;27;20056;-68
2023/06/27 15:16:38;;;;;;;11.32;4.72;;;;;;;;;;5090555;28;20506;-67
2023/06/27 15:20:18;;;;;;;8.80;3.80;;;;;;;;;;5095985;28;20032;-71
2023/06/27 15:23:59;;;;;;;10.07;4.53;;;;;;;;;;5085507;28;20040;-69
2023/06/27 15:27:39;;;;;;;12.95;4.50;;;;;;;;;;5106284;28;20051;-66
2023/06/27 15:31:20;;;;;;;11.30;3.88;;;;;;;;;;5102719;28;20043;-67
2023/06/27 15:35:01;;;;;;;10.07;4.50;;;;;;;;;;5102543;28;20054;-66
2023/06/27 15:38:42;;;;;;;8.25;3.70;;;;;;;;;;5091263;28;20139;-69
2023/06/27 15:42:22;;;;;;;8.57;3.90;;;;;;;;;;5089787;28;20044;-67
2023/06/27 15:46:03;;;;;;;12.02;4.60;;;;;;;;;;5086483;28;20483;-66
2023/06/27 15:49:04;;;;;;;8.68;3.60;;;;;;;;;;5097996;27;20063;-71
2023/06/27 15:51:30;;;;;;;7.70;3.92;;;;;;;;;;5094235;28;20550;-68
2023/06/27 15:53:57;;;;;;;10.95;3.90;;;;;;;;;;5094790;28;20067;-68
2023/06/27 15:56:25;;;;;;;10.38;4.25;;;;;;;;;;5092602;28;20098;-67
2023/06/27 15:58:51;;;;;;;8.90;4.00;;;;;;;;;;5065376;28;20052;-67
2023/06/27 16:01:18;;;;;;;8.38;3.75;;;;;;;;;;5093930;28;20530;-68
2023/06/27 16:03:43;;;;;;;6.93;3.90;;;;;;;;;;5097215;28;20160;-66
2023/06/27 16:06:10;;;;;;;8.25;3.85;;;;;;;;;;5101777;28;20050;-68
2023/06/27 16:08:36;;;;;;;10.07;3.60;;;;;;;;;;5107146;28;20048;-71
2023/06/27 16:11:02;;;;;;;6.97;3.63;;;;;;;;;;5083552;28;20101;-67
2023/06/27 16:13:29;;;;;;;11.63;3.30;;;;;;;;;;5100000;28;20047;-69
2023/06/27 16:15:55;;;;;;;8.00;3.67;;;;;;;;;;5104726;28;20493;-67
2023/06/27 16:18:21;;;;;;;8.05;4.38;;;;;;;;;;5107500;28;20051;-69
2023/06/27 16:20:50;;;;;;;7.95;3.85;;;;;;;;;;5085937;28;20044;-67
2023/06/27 16:23:16;;;;;;;7.15;3.70;;;;;;;;;;5106216;28;20047;-67
2023/06/27 16:25:44;;;;;;;5.53;3.78;;;;;;;;;;5105380;28;20392;-68
2023/06/27 16:28:10;;;;;;;8.07;3.75;;;;;;;;;;5105644;28;20135;-67
2023/06/27 16:30:37;;;;;;;5.75;3.67;;;;;;;;;;5088227;28;20051;-67
2023/06/27 16:33:03;;;;;;;4.75;3.40;;;;;;;;;;5108529;28;20132;-66
2023/06/27 16:35:33;;;;;;;5.78;3.72;;;;;;;;;;5105725;28;20044;-67
2023/06/27 16:37:59;;;;;;;12.35;3.60;;;;;;;;;;5106436;28;20048;-67
2023/06/27 16:40:25;;;;;;;6.90;3.40;;;;;;;;;;5108208;28;20055;-70
2023/06/27 16:42:51;;;;;;;7.05;3.58;;;;;;;;;;5107318;28;20044;-67
2023/06/27 16:45:17;;;;;;;6.93;3.65;;;;;;;;;;5108109;28;20039;-66
2023/06/27 16:47:43;;;;;;;9.88;3.70;;;;;;;;;;5106233;28;20135;-69
2023/06/27 16:50:11;;;;;;;6.82;3.22;;;;;;;;;;5084957;28;20046;-67
2023/06/27 16:52:37;;;;;;;6.53;3.55;;;;;;;;;;5088967;28;20465;-68
2023/06/27 16:55:04;;;;;;;7.70;3.22;;;;;;;;;;5088111;28;20526;-66
2023/06/27 16:57:33;;;;;;;7.80;3.33;;;;;;;;;;5104500;28;20402;-66